Timeline UpdatesTrip UpdatesNews PostsPvt PostsTravel TipsAdmin PostsConv PostsFollowed PostsChat RequestsBlog PostsPNR Posts

Disclaimer
Search
 
 
Wed Aug 20, 2014 20:07:32 ISTHomeTrainsΣChainsAtlasPNRForumGalleryNewsFAQTripsMembersLoginFeedback
No Recent News for this Train
Other Trains in the News **new
Latest...
.
Fri May 16, 2014 (08:46PM)
⇐ Return Journey: Train# 12121

12122/Madhya Pradesh Sampark Kranti Express

Dec 31 2013 (1:18PM)
Change Departure Station:
Change Arrival Station:
Post a Train Travel TipPost a Train Travel Tip **new
Post a Comment/Question/Picture/VideoPost a Comment/Question/Picture/Video
Pantry/Catering
✕ NO Pantry Car
✕ NO Catering
Loco/Rake Reversals
KTE/Katni Junction (6);
RSA - Rake Sharing
01753/01754 JBP-BSP-JBP Special
Rake/Coach Composition
Loco<-SLR-GN-GN-S1-S2-S3-S4-S5-S6-S7-S8-S9-S10-B1-B2-B3-A1-HA1-GN-GEN-SLR.
Loco
NZM-KTE=> ET WAM-4 KTE-JBP=> ET WDM-3A
News    PNR    Forum    Time-Table    Availability    Fare Chart    Map    Arr/Dep History    Trips    Gallery    ΣChains    X/O    Timeline    
Travel Time: 4h 12m    0 halts    Distance: 306 km    Avg Speed: 72 km/hr
Type: Sampark Kranti
Zone: WCR/West Central
Departs @ 17:25 (Avg on time)
Platform# 7
 M  T S
Delhi Hazrat Nizamuddin/NZM 
Arrives @ 21:37 (Avg 15m late)
Platform# 1
 M  T S
Gwalior Junction/GWL 

0 halts. 41 intermediate Stations between Delhi Hazrat Nizamuddin and Gwalior Junction

Hide intermediate Stations  Show Old Time-Table

#CodeStation NameX/OArrivesAvgDepartsAvgHaltPFDay#KmSpeedElevZoneAddress
1NZM»Delhi Hazrat Nizamuddin (7)»  -17:25+0710.073209mNRNew Delhi 110013, Delhi NCT
1.1OKAOkhla (4)  17:28-17:28-  13.7 73221mNRIshwar Nagar Mathura Road, Delhi NCT
1.2TKECTuglakabad East Cabin  17:31-17:31-  16.8 73214mNROkhla Indl Area II, Delhi NCT
1.3TKDTuglakabad (4)  17:33-17:33-  19.7 73213mNRNear Tughlakabad Metro Station, Delhi NCT
1.4TKDCTughlakabad Cabin  17:38-17:38-  115.5 73210mNRFaridabad, Haryana
1.5FDBFaridabad (4)X  17:42-17:42-  120.8 73206mNRold Faridabad, Haryana
1.6FDNFaridabad New Town (3)X  17:45-17:45-  124.7 73204mNRFaridabad, Haryana
1.7BVHBallabgarh (5)  17:49-17:49-  128.9 73203mNRFaridabad, Haryana
1.8PYLAPiyala Block Hut  17:54-17:54-  134.7 73200mNRLadholi - Shahpur Kalan - Sunped Road, Haryana
1.9ASTAsaoti (5)X  17:57-17:57-  138.8 73203mNRAsaoti, Haryana
1.10PWLPalwal (8)  18:06-18:06-  150.0 73200mNRPalwal, Haryana
1.11RDERundhi (4)X  18:14-18:14-  159.3 73194mNCRRundhi, Haryana
1.12SHLKSholaka (4)X  18:23-18:23-  169.8 73 NCRFaridabad, Haryana
1.13BNCRBanchari (2)  18:25-18:25-  173.1 73189mNCRNational Highway 2, Haryana
1.14HDLHodal (4)  18:31-18:31-  180.2 73191mNCRFaridabad, Haryana
1.15KSVKosi Kalan (3)X  18:41-18:41-  192.5 73189mNCRKosi Kalan, Uttar Pradesh
1.16CHJChata (4)X  18:50-18:50-  1102.8 73 NCRChhata, Uttar Pradesh
1.17AJHAjhai (2)X  18:58-18:58-  1112.8 73 NCRAjhai, Uttar Pradesh
1.18VRBDVrindaban Road (3)  19:07-19:07-  1123.8 73179mNCRVrindaban, Uttar Pradesh
1.19BTSRBhuteshwar (3)  19:13-19:13-  1131.3 73181mNCRMathura, Uttar Pradesh
1.20MTJMathura Junction (10)X  19:15-19:15-  1133.9 73179mNCRMathura, Uttar Pradesh
1.21BADBaad (3)X  19:24-19:24-  1143.9 73184mNCRBaad, Uttar Pradesh
1.22FARFarah (3)  19:31-19:31-  1152.6 73175mNCRFarah, Uttar Pradesh
1.23FHTFarah Town (2)  19:33-19:33-  1154.9 73174mNCRFarah, Uttar Pradesh
1.24KXMKitham (3)  19:40-19:40-  1164.1 73175mNCRKitham, Uttar Pradesh
1.25RNKARunkuta (3)X  19:48-19:48-  1173.1 73172mNCRAGRA, Uttar Pradesh
1.26BFPBilochpura Agra (2)  19:55-19:55-  1182.2 73172mNCRAgra, Uttar Pradesh
1.27RKMRaja Ki Mandi (4)  19:56-19:56-  1183.6 73170mNCRAgra, Uttar Pradesh
1.28AGCAgra Cantt. (6)  20:00-20:00-  1187.6 73174mNCRAgra, Uttar Pradesh
1.29BHABhandaiX  20:08-20:08-  1197.9 73170mNCRBhandai, Uttar Pradesh
1.30JJJajau  20:21-20:21-  1213.3 73 NCRJajau, Uttar Pradesh
1.31MIAManiaX  20:33-20:33-  1227.8 73 NCRManda, Rajasthan
1.32DHODholpur Junction (3)  20:43-20:43-  1240.2 73177mNCRDholpur, Rajasthan
1.33GHERGher  20:48-20:48-  1245.9 73152mNCRDhaulpur, Rajasthan
1.34HETHetampur  20:54-20:54-  1253.0 73175mNCRDhaulpur, Rajasthan
1.35SIKDSikroda Kwanri  20:58-20:58-  1258.1 73175mNCRNH 3, Madhya Pradesh
1.36MRAMorena (3)  21:05-21:05-  1267.1 73176mNCRMorena, Madhya Pradesh
1.37SANKSankX  21:13-21:13-  1276.8 73179mNCRMorena(0753-2226392), Madhya Pradesh
1.38NUBNurabad  21:16-21:16-  1280.3 73179mNCRMorena(0753-2226392), Madhya Pradesh
1.39BAOBanmor  21:21-21:21-  1286.4 73189mNCRGwalior, Madhya Pradesh
1.40RRURayaruX  21:26-21:26-  1292.5 73196mNCRGwalior, Madhya Pradesh
1.41BLNRBirlanagar (3)  21:35-21:35-  1303.0 73206mNCRGwalior, Madhya Pradesh
2GWL•Gwalior Junction (4)•  21:37+1521:42+155m11305.660214mNCRGwalior, Madhya Pradesh
2.1STLISithouli (2)X  21:51-21:51-  1314.4 60228mNCRGwalior, Madhya Pradesh
2.2SLVSandalpur  21:58-21:58-  1321.8 60264mNCRGwalior, Madhya Pradesh
2.3ARIAntri  22:04-22:04-  1327.8 60257mNCRGwalior, Madhya Pradesh
2.4AEHAnant PaithX  22:14-22:14-  1338.0 60228mNCRGwalior, Madhya Pradesh
2.5SMTLSimariatalX  22:19-22:19-  1342.7 60210mNCRSimiriya Tal, Madhya Pradesh
2.6DBADabra (3)  22:24-22:24-  1348.0 60 NCRDabra(District-Gwalior), Madhya Pradesh
2.7KTRAKotraX  22:34-22:34-  1357.5 60205mNCRNH 75, Madhya Pradesh
2.8SORSonagir (2)X  22:43-22:43-  1366.8 60211mNCRDatia, Madhya Pradesh
2.9DAADatia (2)X  22:55-22:55-  1378.3 60264mNCRDatia, Madhya Pradesh
2.10KRQKarari  23:08-23:08-  1391.9 60243mNCRNational Highway 75, Madhya Pradesh
3JHSJhansi Junction (7)X  23:20+1023:28+138m21403.474259mNCRJhansi, Uttar Pradesh
3.1JHSAJhansi A Cabin  23:30-23:30-  1406.2 74258mNCRJhansi, Uttar Pradesh
3.2BJIBijauli (3)X  23:35-23:35-  1411.8 74273mNCRJhansi, Uttar Pradesh
3.3KHJKhajraha (3)  23:42-23:42-  1420.8 74277mNCRJhansi(0510-2440441), Uttar Pradesh
3.4BABBabina (3)X  23:49-23:49-  1428.9 74285mNCRBabina, Uttar Pradesh
3.5BPWBurhpura (3)  23:53-23:53-  1434.0 74303mNCRBabina, Uttar Pradesh
3.6BZYBasai (3)  23:59-23:59-  1441.0 74287mNCR07522289600(Gate ManMob. - 9452701575), Madhya Pradesh
3.7MZXMatatila (3)  00:05-00:05-  2448.5 74 NCRKhaniyadhana, Madhya Pradesh
3.8TBTTalbahat (4)  00:09-00:09-  2453.8 74314mNCRKhaniyadhana Station Rd, Madhya Pradesh
3.9DLADoultaX  00:13-00:13-  2459.0 74327mNCRTalbehat, Madhya Pradesh
3.10BJABijrotha (2)  00:18-00:18-  2464.5 74353mNCRDistrict Lalitpur(05176-272220), Uttar Pradesh
3.11JHAJakhaura (3)XO  00:25-00:25-  2473.2 74361mNCRDistrict Lalitpur, Uttar Pradesh
3.12DWADailwara (3)  00:33-00:33-  2483.3 74367mNCRDailwara(05176-272220), Uttar Pradesh
3.13LARLalitpur (3)X  00:42-00:42-  2493.7 74373mNCRLalitpur, Uttar Pradesh
3.14JROJiron (3)  00:49-00:49-  2503.2 74384mNCRSonebhadra, Uttar Pradesh
3.15JLNJakhalaun (3)X  00:55-00:55-  2510.4 74394mNCRLalitpur(05176-272220), Uttar Pradesh
3.16DUADhaura (3)  01:05-01:05-  2522.0 74407mNCRDhaura Tanda, Madhya Pradesh
3.17MXSMohasa (3)X  01:12-01:12-  2530.9 74414mNCRBina, Madhya Pradesh
3.18KOAKarondaX  01:17-01:17-  2536.9 74 NCRBina, Madhya Pradesh
3.19AGDAgasod  01:26-01:26-  2548.6 74427mNCRBina, Madhya Pradesh
3.20MAKRMalkheri Junction (2)  01:33-01:33-  2556.8 74421mWCRGuna, Madhya Pradesh
3.21BJQBaghora (2)X  01:37-01:37-  2562.3 74420mWCRSagar, Madhya Pradesh
3.22KYEKhurai (5)  01:47-01:47-  2574.1 74439mWCRKhurai, Madhya Pradesh
3.23SMRRSumreri  01:54-01:54-  2582.9 74443mWCRKhurai, Madhya Pradesh
3.24JRKJeruwa KheraX  02:02-02:02-  2592.0 74498mWCRJeruwakhera, Madhya Pradesh
3.25ISHIsarwaraX  02:09-02:09-  2601.1 74487mWCRSagar, Madhya Pradesh
3.26NOINariaoliX  02:15-02:15-  2608.6 74485mWCRSagar, Madhya Pradesh
3.27RTZRatona  02:24-02:24-  2619.7 74507mWCRNational Highway 86, Madhya Pradesh
4SGOSaugor (2)  02:30+3002:35+315m12627.063519mWCRMP 470001Madhya pradesh, Madhya Pradesh
4.1MKRNMakroniaX  02:42-02:42-  2634.0 63527mWCRRajakhedi, Madhya Pradesh
4.2LDALidhora Khurd  02:48-02:48-  2641.2 63496mWCRSagar, Madhya Pradesh
4.3GWGirwarX  02:58-02:58-  2651.2 63472mWCRSagar, Madhya Pradesh
4.4DGDDangidhar (2)  03:05-03:05-  2658.2 63434mWCRState Highway 14, Madhya Pradesh
4.5GAJGaneshGanjX  03:11-03:11-  2665.0 63419mWCRPatharia, Madhya Pradesh
4.6PHAPathariaX  03:23-03:23-  2677.9 63382mWCRState Highway 14, Madhya Pradesh
4.7ANAAslana  03:36-03:36-  2691.7 63367mWCRDamoh, Madhya Pradesh
5DMODamoh (2)  03:48+3703:50+372m--2704.051365mWCRDamoh, Madhya Pradesh
5.1KYXKarhiya Bhadeli  04:00-04:00-  2712.1 51365mWCRGhatera, Madhya Pradesh
5.2BNUBandakpur  04:08-04:08-  2719.4 51352mWCRBandakpur Rd, Madhya Pradesh
5.3GEAGhateraO  04:21-04:21-  2730.0 51332mWCRBandakpur Rd, Madhya Pradesh
5.4GTYGola Pati  04:31-04:31-  2738.7 51356mWCRKumhari, Madhya Pradesh
5.5SAOSagoni  04:39-04:39-  2746.2 51358mWCRGhatera, Madhya Pradesh
5.6RTGNRatangaon  04:53-04:53-  2757.3 51449mWCRDohli, Madhya Pradesh
5.7SYASalaia  05:01-05:01-  2764.3 51438mWCRGhatera, Madhya Pradesh
5.8BQQBakhleta  05:13-05:13-  2774.7 51429mWCRKatni, Madhya Pradesh
5.9REIRithi  05:23-05:23-  2783.1 51427mWCRKatni, Madhya Pradesh
5.10PTHDPatohan  05:30-05:30-  2789.1 51409mWCRKachhar Kheda, Madhya Pradesh
5.11HDUHardua  05:40-05:40-  2797.8 51394mWCRKatni, Madhya Pradesh
5.12MJGPMajhagawan PhatakX  05:50-05:50-  2806.3 51395mWCRKatni, Madhya Pradesh
5.13KMZKatni Murwara  05:58-05:58-  2813.2 51385mWCRMP 483504 ?, Madhya Pradesh
6KTEKatni Junction (6)X↵¶06:00+1506:15+1815m--2814.852387mWCRKatni, Madhya Pradesh
6.1KTESKatni South  06:16-06:16-  2815.9 52386mWCRKatni, Madhya Pradesh
6.2MDRRMadhavnagar Road (2)  06:21-06:21-  2820.0 52398mWCRMadhavnagar, Madhya Pradesh
6.3NWRNiwar (2)  06:30-06:30-  2828.0 52412mWCRPipraundh, Madhya Pradesh
6.4SNRRSansarpur (2)  06:39-06:39-  2835.8 52436mWCRNational Highway 7, Madhya Pradesh
6.5SBDSleemanabad Road (2)  06:47-06:47-  2842.7 52434mWCRSleemanabad, Madhya Pradesh
6.6DDCEDundi (2)X  06:58-06:58-  2852.2 52415mWCRDundi, Madhya Pradesh
6.7SHRSihora Road (2)XO  07:16-07:16-  2867.1 52388mWCRJabalpur, Madhya Pradesh
6.8GSPRGosalpur (2)  07:28-07:28-  2878.2 52396mWCRJabalpur, Madhya Pradesh
6.9DOEDeori (2)X  07:41-07:41-  2888.7 52392mWCRJabalpur, Madhya Pradesh
6.10ADTLAdhartal (2)  07:51-07:51-  2897.5 52393mWCRJabalpur, Madhya Pradesh
7JBPJabalpur Junction (4)  08:00+3-42905.5-416mWCRJabalpur, Madhya Pradesh
Scroll to Top
Scroll to Bottom